This is the latest recevied weather packets stored in our database for station/object SP6YY-15. If no packets are shown the sender has not sent any weather packets the latest 10 day(s).
| Time | Temp. | Humidity | Pressure | Rain* | Wind** | Luminosity | Snow |
|---|---|---|---|---|---|---|---|
| 1788343537 | 39.44° C | 29% | 1007.5 hPa | - | - | - | - |
| 1788342937 | 38.89° C | 29% | 1007.6 hPa | - | - | - | - |
| 1788337837 | 31.67° C | 32% | 1008 hPa | - | - | - | - |
| 1788336037 | 30° C | 31% | 1008 hPa | - | - | - | - |
| 1788335737 | 30° C | 32% | 1007.9 hPa | - | - | - | - |
| 1788335437 | 29.44° C | 32% | 1007.9 hPa | - | - | - | - |
| 1788335137 | 29.44° C | 32% | 1007.8 hPa | - | - | - | - |
| 1788334837 | 28.89° C | 31% | 1007.9 hPa | - | - | - | - |
| 1788334536 | 28.89° C | 31% | 1007.9 hPa | - | - | - | - |
| 1788334236 | 28.89° C | 31% | 1007.9 hPa | - | - | - | - |
| 1788333936 | 28.33° C | 31% | 1007.8 hPa | - | - | - | - |
| 1788333636 | 28.33° C | 31% | 1007.8 hPa | - | - | - | - |
| 1788333336 | 28.33° C | 31% | 1007.7 hPa | - | - | - | - |
| 1788333036 | 28.33° C | 31% | 1007.7 hPa | - | - | - | - |
| 1788332736 | 28.33° C | 31% | 1007.6 hPa | - | - | - | - |
| 1788332436 | 28.33° C | 30% | 1007.5 hPa | - | - | - | - |
| 1788332137 | 27.78° C | 30% | 1007.5 hPa | - | - | - | - |
| 1788331836 | 27.78° C | 30% | 1007.4 hPa | - | - | - | - |
| 1788331536 | 27.78° C | 30% | 1007.3 hPa | - | - | - | - |
| 1788331236 | 27.78° C | 30% | 1007.2 hPa | - | - | - | - |
| 1788330936 | 28.33° C | 29% | 1007.2 hPa | - | - | - | - |
| 1788330636 | 28.33° C | 29% | 1007.3 hPa | - | - | - | - |
| 1788330336 | 28.33° C | 28% | 1007.2 hPa | - | - | - | - |
| 1788330036 | 28.89° C | 28% | 1007.3 hPa | - | - | - | - |
| 1788329736 | 29.44° C | 27% | 1007.2 hPa | - | - | - | - |
* Rain since midnight (hover to see other rain measurements)
** Current wind speed in m/s (hover to see current wind gust speed)